Time;durP1;ratioP1;P1;durP2;ratioP2;P2;SDS_P1;SDS_P2;PMS_P1;PMS_P2;Temp;Humidity;BMP_temperature;BMP_pressure;BME280_temperature;BME280_humidity;BME280_pressure;Samples;Min_cycle;Max_cycle;Signal;HPM_P1;HPM_P2
2022/10/08 00:01:12;;;;;;;22.00;15.35;;;10.50;99.90;;;;;;4998729;28;20062;-74
2022/10/08 00:03:40;;;;;;;22.67;15.50;;;10.50;99.90;;;;;;5015924;28;20065;-74
2022/10/08 00:06:11;;;;;;;19.73;14.02;;;10.50;99.90;;;;;;4998304;28;20034;-74
2022/10/08 00:08:38;;;;;;;23.13;15.25;;;10.40;99.90;;;;;;4998285;28;20026;-74
2022/10/08 00:11:07;;;;;;;25.42;14.75;;;10.40;99.90;;;;;;5015502;28;20106;-76
2022/10/08 00:13:40;;;;;;;27.25;16.17;;;10.40;99.90;;;;;;4998187;28;20033;-74
2022/10/08 00:16:16;;;;;;;25.20;16.17;;;10.40;99.90;;;;;;5015542;28;20548;-74
2022/10/08 00:18:44;;;;;;;22.98;15.45;;;10.40;99.90;;;;;;4997982;28;20061;-74
2022/10/08 00:21:13;;;;;;;23.52;16.88;;;10.40;99.90;;;;;;4997891;28;20526;-74
2022/10/08 00:23:43;;;;;;;26.95;17.15;;;10.50;99.90;;;;;;4997847;28;20080;-74
2022/10/08 00:26:10;;;;;;;24.90;16.48;;;10.60;99.90;;;;;;4995894;28;20498;-74
2022/10/08 00:28:37;;;;;;;19.95;15.85;;;10.70;99.90;;;;;;4978297;28;20037;-74
2022/10/08 00:31:14;;;;;;;23.70;16.10;;;10.70;99.90;;;;;;4978323;28;20026;-74
2022/10/08 00:33:40;;;;;;;19.30;14.90;;;10.70;99.90;;;;;;4995720;28;20030;-74
2022/10/08 00:36:10;;;;;;;20.10;15.50;;;10.80;99.90;;;;;;4995377;28;20049;-74
2022/10/08 00:38:36;;;;;;;20.92;14.25;;;10.90;99.90;;;;;;4979454;28;20360;-74
2022/10/08 00:41:04;;;;;;;20.63;14.52;;;10.90;99.90;;;;;;4997596;28;20425;-74
2022/10/08 00:43:42;;;;;;;22.55;15.55;;;10.90;99.90;;;;;;4997544;28;20030;-74
2022/10/08 00:46:32;;;;;;;19.92;14.10;;;10.90;99.90;;;;;;5014676;28;20025;-74
2022/10/08 00:49:01;;;;;;;19.95;14.30;;;10.90;99.90;;;;;;5015658;28;20057;-74
2022/10/08 00:51:27;;;;;;;19.77;15.38;;;10.90;99.90;;;;;;5014979;28;20026;-74
2022/10/08 00:53:53;;;;;;;19.38;13.82;;;10.90;99.90;;;;;;5014775;28;20084;-74
2022/10/08 00:56:20;;;;;;;20.10;14.10;;;10.80;99.90;;;;;;5014926;28;20018;-75
2022/10/08 00:58:47;;;;;;;20.08;13.82;;;10.80;99.90;;;;;;4997768;28;20377;-74
2022/10/08 01:01:13;;;;;;;21.67;13.50;;;10.80;99.90;;;;;;5014877;28;20030;-74
2022/10/08 01:03:39;;;;;;;16.70;13.40;;;10.80;99.90;;;;;;4997116;28;20033;-74
2022/10/08 01:06:31;;;;;;;21.40;13.90;;;10.90;99.90;;;;;;5014787;28;20034;-74
2022/10/08 01:09:03;;;;;;;19.65;14.00;;;10.90;99.90;;;;;;4997180;28;20025;-74
2022/10/08 01:11:31;;;;;;;20.63;13.93;;;11.00;99.90;;;;;;5014450;28;20390;-74
2022/10/08 01:14:27;;;;;;;18.25;12.45;;;11.00;99.90;;;;;;4997039;28;20117;-74
2022/10/08 01:17:17;;;;;;;18.85;13.88;;;11.10;99.90;;;;;;5014501;28;20070;-75
2022/10/08 01:20:21;;;;;;;16.50;13.10;;;11.10;99.90;;;;;;4996954;28;20115;-74
2022/10/08 01:23:08;;;;;;;24.80;12.82;;;11.10;99.90;;;;;;4996757;28;20038;-74
2022/10/08 01:25:36;;;;;;;20.10;12.48;;;11.10;99.90;;;;;;5014272;28;20034;-74
2022/10/08 01:28:12;;;;;;;19.33;12.88;;;11.10;99.90;;;;;;5014453;28;20034;-74
2022/10/08 01:30:44;;;;;;;17.80;11.93;;;11.10;99.90;;;;;;5014430;28;20030;-74
2022/10/08 01:33:21;;;;;;;16.00;12.23;;;11.10;99.90;;;;;;5013652;28;20061;-74
2022/10/08 01:35:56;;;;;;;15.43;12.20;;;11.10;99.90;;;;;;4997114;28;20030;-74
2022/10/08 01:38:25;;;;;;;17.23;12.63;;;11.10;99.90;;;;;;4996442;28;20563;-74
2022/10/08 01:40:57;;;;;;;19.25;13.85;;;11.10;99.90;;;;;;4996587;28;20415;-74
2022/10/08 01:43:27;;;;;;;18.17;14.00;;;11.10;99.90;;;;;;5014224;28;20033;-74
2022/10/08 01:45:59;;;;;;;17.73;13.38;;;11.00;99.90;;;;;;5014225;28;20489;-74
2022/10/08 01:48:32;;;;;;;16.80;13.25;;;11.10;99.90;;;;;;5014149;28;20062;-74
2022/10/08 01:51:08;;;;;;;18.75;13.55;;;11.10;99.90;;;;;;5014114;28;20112;-74
2022/10/08 01:53:39;;;;;;;25.15;14.43;;;11.20;99.90;;;;;;5013462;28;20474;-74
2022/10/08 01:56:08;;;;;;;17.92;13.75;;;11.20;99.90;;;;;;5014059;28;20046;-74
2022/10/08 01:58:51;;;;;;;17.77;13.55;;;11.20;99.90;;;;;;5013962;28;20112;-74
2022/10/08 02:01:55;;;;;;;18.15;13.38;;;11.30;99.90;;;;;;5014193;28;20030;-74
2022/10/08 02:04:36;;;;;;;19.52;13.02;;;11.30;99.90;;;;;;4975251;28;20124;-74
2022/10/08 02:07:09;;;;;;;19.63;13.50;;;11.40;99.90;;;;;;5013827;28;20025;-74
2022/10/08 02:09:40;;;;;;;23.88;14.60;;;11.40;99.90;;;;;;4996397;28;20030;-74
2022/10/08 02:12:07;;;;;;;23.65;15.55;;;11.50;99.90;;;;;;5014322;28;20144;-74
2022/10/08 02:14:36;;;;;;;36.03;16.50;;;11.60;99.90;;;;;;5013617;28;20030;-74
2022/10/08 02:17:07;;;;;;;31.88;20.13;;;11.60;99.90;;;;;;4996020;28;20383;-74
2022/10/08 02:19:48;;;;;;;33.83;19.92;;;11.70;99.90;;;;;;4996628;28;20422;-74
2022/10/08 02:22:18;;;;;;;35.40;20.33;;;11.80;99.90;;;;;;5013595;28;20041;-74
2022/10/08 02:25:16;;;;;;;29.05;19.23;;;11.90;99.90;;;;;;5014086;28;20033;-74
2022/10/08 02:28:00;;;;;;;37.03;20.13;;;11.90;99.90;;;;;;4958952;28;20192;-74
2022/10/08 02:30:35;;;;;;;39.15;20.55;;;12.00;99.90;;;;;;4996118;28;20537;-74
2022/10/08 02:33:04;;;;;;;34.30;21.27;;;12.10;99.90;;;;;;5013661;28;20477;-74
2022/10/08 02:35:43;;;;;;;33.40;19.70;;;12.10;99.90;;;;;;4996308;28;20165;-74
2022/10/08 02:38:26;;;;;;;28.83;18.42;;;12.10;99.90;;;;;;4995948;28;20073;-74
2022/10/08 02:40:55;;;;;;;25.42;18.27;;;12.20;99.90;;;;;;4996271;28;20076;-74
2022/10/08 02:43:26;;;;;;;29.80;18.20;;;12.20;99.90;;;;;;4995683;28;20029;-74
2022/10/08 02:46:16;;;;;;;28.83;18.80;;;12.20;99.90;;;;;;5013690;28;20026;-74
2022/10/08 02:48:49;;;;;;;25.92;17.58;;;12.20;99.90;;;;;;4996570;28;20120;-74
2022/10/08 02:51:17;;;;;;;36.03;19.08;;;12.30;99.90;;;;;;5013444;28;20112;-75
2022/10/08 02:53:44;;;;;;;32.03;18.88;;;12.30;99.90;;;;;;5013219;28;20116;-74
2022/10/08 02:56:21;;;;;;;31.98;20.05;;;12.30;99.90;;;;;;5013552;28;20026;-74
2022/10/08 02:58:47;;;;;;;33.92;20.90;;;12.40;99.90;;;;;;5013232;28;20478;-74
2022/10/08 03:01:36;;;;;;;33.80;20.08;;;12.40;99.90;;;;;;4996207;28;20536;-75
2022/10/08 03:04:11;;;;;;;33.75;20.45;;;12.40;99.90;;;;;;5013441;28;20041;-74
2022/10/08 03:06:38;;;;;;;37.35;21.17;;;12.50;99.90;;;;;;4996301;28;20367;-74
2022/10/08 03:09:06;;;;;;;41.40;22.48;;;12.50;99.90;;;;;;4997812;28;20121;-74
2022/10/08 03:11:33;;;;;;;36.95;22.40;;;12.50;99.90;;;;;;4999506;28;20116;-74
2022/10/08 03:14:04;;;;;;;35.17;20.60;;;12.50;99.90;;;;;;5016946;28;20030;-74
2022/10/08 03:16:43;;;;;;;34.95;20.77;;;12.50;99.90;;;;;;4999253;28;20108;-74
2022/10/08 03:19:10;;;;;;;37.05;20.85;;;12.50;99.90;;;;;;5000041;28;20077;-74
2022/10/08 03:21:38;;;;;;;37.80;22.50;;;12.50;99.90;;;;;;4999247;28;20041;-75
2022/10/08 03:24:05;;;;;;;42.30;23.33;;;12.60;99.90;;;;;;4999041;28;20426;-75
2022/10/08 03:26:31;;;;;;;44.40;24.50;;;12.60;99.90;;;;;;5016298;28;20383;-75
2022/10/08 03:28:56;;;;;;;47.30;25.40;;;12.60;99.90;;;;;;5016607;28;20036;-74
2022/10/08 03:31:22;;;;;;;48.88;26.10;;;12.60;99.90;;;;;;5016819;28;20034;-74
2022/10/08 03:33:52;;;;;;;47.08;25.88;;;12.60;99.90;;;;;;4998890;28;20068;-74
2022/10/08 03:36:19;;;;;;;46.83;25.65;;;12.60;99.90;;;;;;4998734;28;20429;-75
2022/10/08 03:38:45;;;;;;;62.13;27.80;;;12.60;99.90;;;;;;5016185;28;20438;-74
2022/10/08 03:41:11;;;;;;;59.65;27.83;;;12.60;99.90;;;;;;4998732;28;20126;-74
2022/10/08 03:43:37;;;;;;;54.60;28.05;;;12.70;99.90;;;;;;5016873;28;20030;-75
2022/10/08 03:46:03;;;;;;;52.70;28.15;;;12.60;99.90;;;;;;5016051;28;20061;-74
2022/10/08 03:48:28;;;;;;;59.90;27.95;;;12.70;99.90;;;;;;5015956;28;20450;-75
2022/10/08 03:50:59;;;;;;;52.88;27.35;;;12.70;99.90;;;;;;5015925;28;20033;-75
2022/10/08 03:53:26;;;;;;;57.95;27.85;;;12.70;99.90;;;;;;5016303;28;20378;-75
2022/10/08 03:55:52;;;;;;;55.15;28.58;;;12.70;99.90;;;;;;5016088;28;20518;-74
2022/10/08 03:58:19;;;;;;;55.72;28.20;;;12.70;99.90;;;;;;4997982;28;20149;-74
2022/10/08 04:00:58;;;;;;;56.00;28.63;;;12.70;99.90;;;;;;4998178;28;20034;-74
2022/10/08 04:03:25;;;;;;;49.20;27.58;;;12.70;99.90;;;;;;4998451;28;20108;-74
2022/10/08 04:05:51;;;;;;;48.95;27.38;;;12.80;99.90;;;;;;5016351;28;20489;-74
2022/10/08 04:08:16;;;;;;;53.83;29.85;;;12.80;99.90;;;;;;5015954;28;20029;-74
2022/10/08 04:10:42;;;;;;;56.60;28.35;;;12.80;99.90;;;;;;5016103;28;20034;-74
2022/10/08 04:13:08;;;;;;;51.00;27.92;;;12.80;99.90;;;;;;4997903;28;20062;-74
2022/10/08 04:15:33;;;;;;;47.67;27.38;;;12.80;99.90;;;;;;5015630;28;20033;-74
2022/10/08 04:17:59;;;;;;;54.00;28.88;;;12.80;99.90;;;;;;5016318;28;20073;-74
2022/10/08 04:20:25;;;;;;;51.30;28.88;;;12.80;99.90;;;;;;4996920;28;20124;-75
2022/10/08 04:22:50;;;;;;;50.95;30.00;;;12.80;99.90;;;;;;5015308;28;20034;-74
2022/10/08 04:25:16;;;;;;;47.50;29.05;;;12.80;99.90;;;;;;5015559;28;20025;-75
2022/10/08 04:27:42;;;;;;;49.10;28.70;;;12.80;99.90;;;;;;4997875;28;20072;-75
2022/10/08 04:30:08;;;;;;;48.47;28.92;;;12.90;99.90;;;;;;4998017;28;20431;-75
2022/10/08 04:32:34;;;;;;;52.17;29.55;;;12.90;99.90;;;;;;5015481;28;20033;-74
2022/10/08 04:35:00;;;;;;;52.55;29.50;;;12.90;99.90;;;;;;4997970;28;20030;-75
2022/10/08 04:37:25;;;;;;;52.03;29.25;;;12.90;99.90;;;;;;5015232;28;20053;-74
2022/10/08 04:39:51;;;;;;;50.22;28.27;;;12.90;99.90;;;;;;4997946;28;20233;-74
2022/10/08 04:42:17;;;;;;;50.63;29.58;;;12.90;99.90;;;;;;4997515;28;20072;-74
2022/10/08 04:44:42;;;;;;;47.50;29.00;;;13.00;99.90;;;;;;4997609;28;20573;-75
2022/10/08 04:47:08;;;;;;;50.28;29.15;;;13.00;99.90;;;;;;5015437;28;20378;-75
2022/10/08 04:49:34;;;;;;;44.40;27.60;;;13.00;99.90;;;;;;5015257;28;20034;-75
2022/10/08 04:51:59;;;;;;;49.45;28.15;;;13.00;99.90;;;;;;5014991;28;20116;-75
2022/10/08 04:54:25;;;;;;;47.50;28.20;;;13.00;99.90;;;;;;5014771;28;20026;-75
2022/10/08 04:56:51;;;;;;;46.85;27.35;;;13.00;99.90;;;;;;5014667;28;20040;-75
2022/10/08 04:59:16;;;;;;;49.33;28.05;;;13.00;99.90;;;;;;5014665;28;20551;-75
2022/10/08 05:01:42;;;;;;;52.90;29.77;;;13.00;99.90;;;;;;4997287;28;20037;-75
2022/10/08 05:04:07;;;;;;;50.05;28.65;;;13.00;99.90;;;;;;4997250;28;20474;-76
2022/10/08 05:06:33;;;;;;;54.83;29.95;;;13.00;99.90;;;;;;5015043;28;20347;-74
2022/10/08 05:09:03;;;;;;;48.42;28.02;;;13.00;99.90;;;;;;4997415;28;20030;-74
2022/10/08 05:11:30;;;;;;;48.28;28.80;;;13.00;99.90;;;;;;5014373;28;20026;-74
2022/10/08 05:13:57;;;;;;;46.30;27.40;;;13.00;99.90;;;;;;5014404;28;20022;-74
2022/10/08 05:16:24;;;;;;;51.35;28.10;;;13.10;99.90;;;;;;5014098;28;20022;-74
2022/10/08 05:18:50;;;;;;;49.47;29.23;;;13.10;99.90;;;;;;5014273;28;20116;-74
2022/10/08 05:21:22;;;;;;;52.03;29.63;;;13.10;99.90;;;;;;4996554;28;20034;-74
2022/10/08 05:23:57;;;;;;;44.53;28.23;;;13.10;99.90;;;;;;4997168;28;20121;-75
2022/10/08 05:26:26;;;;;;;52.15;29.92;;;13.10;99.90;;;;;;4997010;28;20117;-74
2022/10/08 05:28:56;;;;;;;46.90;27.80;;;13.10;99.90;;;;;;5014394;28;20050;-73
2022/10/08 05:31:23;;;;;;;47.20;27.48;;;13.20;99.90;;;;;;4996409;28;20100;-74
2022/10/08 05:33:49;;;;;;;48.13;28.02;;;13.20;99.90;;;;;;5014074;28;20030;-74
2022/10/08 05:36:24;;;;;;;45.65;27.23;;;13.20;99.90;;;;;;5013981;28;20049;-74
2022/10/08 05:38:50;;;;;;;38.75;24.95;;;13.20;99.90;;;;;;4996699;28;20060;-76
2022/10/08 05:41:28;;;;;;;44.22;27.23;;;13.20;99.90;;;;;;4996595;28;20025;-74
2022/10/08 05:43:56;;;;;;;40.90;26.30;;;13.30;99.90;;;;;;5014112;28;20029;-77
2022/10/08 05:46:26;;;;;;;45.97;28.50;;;13.30;99.90;;;;;;4996297;28;20030;-75
2022/10/08 05:48:53;;;;;;;41.95;25.10;;;13.30;99.90;;;;;;5014218;28;20045;-77
2022/10/08 05:51:19;;;;;;;38.58;25.40;;;13.40;99.90;;;;;;5014337;28;20022;-57
2022/10/08 05:53:47;;;;;;;48.95;27.02;;;13.40;99.90;;;;;;5014009;28;20026;-75
2022/10/08 05:56:15;;;;;;;42.30;26.10;;;13.40;99.90;;;;;;5014368;28;20037;-73
2022/10/08 05:58:41;;;;;;;41.70;25.00;;;13.50;99.90;;;;;;5014016;28;20040;-74
2022/10/08 06:01:12;;;;;;;39.92;24.23;;;13.50;99.90;;;;;;4996181;28;20030;-74
2022/10/08 06:03:38;;;;;;;41.70;24.77;;;13.50;99.90;;;;;;4996368;28;20121;-75
2022/10/08 06:06:07;;;;;;;35.53;23.30;;;13.60;99.90;;;;;;4996388;28;20146;-76
2022/10/08 06:08:34;;;;;;;37.25;24.40;;;13.60;99.90;;;;;;4997026;28;20037;-75
2022/10/08 06:11:00;;;;;;;36.90;23.17;;;13.60;99.90;;;;;;5013888;28;20038;-75
2022/10/08 06:13:26;;;;;;;35.53;22.13;;;13.70;99.90;;;;;;5013827;28;20076;-74
2022/10/08 06:16:06;;;;;;;35.85;23.17;;;13.70;99.90;;;;;;4995998;28;20033;-74
2022/10/08 06:18:35;;;;;;;36.30;21.20;;;13.70;99.90;;;;;;4994172;28;20039;-76
2022/10/08 06:21:06;;;;;;;33.17;22.00;;;13.70;99.90;;;;;;4976986;28;20061;-73
2022/10/08 06:23:31;;;;;;;32.80;21.40;;;13.70;99.90;;;;;;4994243;28;20057;-75
2022/10/08 06:26:08;;;;;;;33.60;21.67;;;13.70;99.90;;;;;;4976688;28;20026;-74
2022/10/08 06:28:36;;;;;;;35.25;22.42;;;13.70;99.90;;;;;;4994239;28;20034;-75
2022/10/08 06:31:02;;;;;;;30.40;20.83;;;13.70;99.90;;;;;;4993946;28;20054;-73
2022/10/08 06:33:28;;;;;;;26.55;19.30;;;13.60;99.90;;;;;;4993912;28;20026;-74
2022/10/08 06:35:54;;;;;;;30.95;20.00;;;13.60;99.90;;;;;;4976612;28;20037;-73
2022/10/08 06:38:20;;;;;;;32.65;20.58;;;13.70;99.90;;;;;;4994039;28;20070;-75
2022/10/08 06:40:46;;;;;;;28.48;19.92;;;13.70;99.90;;;;;;4976208;28;20027;-78
2022/10/08 06:43:14;;;;;;;29.08;20.17;;;13.80;99.90;;;;;;4994422;28;20057;-75
2022/10/08 06:45:41;;;;;;;29.95;19.33;;;14.00;99.90;;;;;;4997592;28;20037;-77
2022/10/08 06:48:07;;;;;;;24.98;17.45;;;14.20;99.90;;;;;;4997753;28;20154;-75
2022/10/08 06:50:33;;;;;;;23.58;16.40;;;14.50;99.90;;;;;;4998114;28;20037;-76
2022/10/08 06:52:59;;;;;;;21.60;15.25;;;14.70;99.90;;;;;;4980309;28;20026;-76
2022/10/08 06:55:24;;;;;;;25.38;17.25;;;14.70;99.90;;;;;;4979984;28;20033;-75
2022/10/08 06:57:50;;;;;;;24.75;17.45;;;14.70;99.90;;;;;;4979965;28;20180;-75
2022/10/08 07:00:16;;;;;;;24.00;16.75;;;14.60;99.90;;;;;;4997640;28;20026;-75
2022/10/08 07:02:43;;;;;;;25.67;17.00;;;14.60;99.90;;;;;;4997429;28;20091;-75
2022/10/08 07:05:09;;;;;;;25.25;16.77;;;14.60;99.90;;;;;;4997161;28;20105;-74
2022/10/08 07:07:35;;;;;;;28.38;16.77;;;14.50;99.90;;;;;;4997357;28;20109;-76
2022/10/08 07:10:02;;;;;;;20.40;15.20;;;14.60;99.90;;;;;;4979998;28;20058;-76
2022/10/08 07:12:28;;;;;;;24.27;15.13;;;14.80;99.90;;;;;;4979791;28;20121;-75
2022/10/08 07:14:54;;;;;;;24.73;16.10;;;15.30;99.90;;;;;;4979731;28;20054;-75
2022/10/08 07:17:19;;;;;;;24.42;15.40;;;15.60;99.90;;;;;;5007181;28;20053;-75
2022/10/08 07:19:45;;;;;;;22.55;14.38;;;15.90;99.90;;;;;;5016818;28;20030;-75
2022/10/08 07:22:10;;;;;;;19.10;14.93;;;16.00;99.90;;;;;;5016386;28;20106;-75
2022/10/08 07:24:36;;;;;;;21.70;14.23;;;16.10;99.90;;;;;;4999074;28;20034;-76
2022/10/08 07:27:02;;;;;;;19.70;13.85;;;16.40;99.90;;;;;;4999027;28;20036;-76
2022/10/08 07:29:27;;;;;;;19.17;14.00;;;16.80;99.90;;;;;;5016983;28;20032;-75
2022/10/08 07:31:53;;;;;;;16.58;12.88;;;17.30;99.90;;;;;;4999428;28;20026;-75
2022/10/08 07:34:19;;;;;;;19.65;12.65;;;17.50;99.90;;;;;;5016695;28;20018;-75
2022/10/08 07:36:44;;;;;;;19.40;12.73;;;17.50;99.90;;;;;;4999478;28;20022;-75
2022/10/08 07:39:14;;;;;;;23.55;14.38;;;17.40;99.90;;;;;;4998956;28;20092;-75
2022/10/08 07:41:40;;;;;;;14.23;12.05;;;17.40;99.90;;;;;;5016238;28;20030;-75
2022/10/08 07:44:06;;;;;;;16.10;12.50;;;17.20;99.90;;;;;;4998609;28;20030;-75
2022/10/08 07:46:35;;;;;;;20.40;13.07;;;16.90;99.90;;;;;;5016185;28;20022;-75
2022/10/08 07:49:01;;;;;;;16.35;12.02;;;16.70;99.90;;;;;;4998586;28;20026;-75
2022/10/08 07:51:29;;;;;;;21.70;13.48;;;16.60;99.90;;;;;;4998497;28;20030;-75
2022/10/08 07:53:55;;;;;;;16.73;11.17;;;16.60;99.90;;;;;;4998240;28;20427;-75
2022/10/08 07:56:22;;;;;;;17.58;12.65;;;16.50;99.90;;;;;;5016535;28;20261;-75
2022/10/08 07:58:48;;;;;;;16.73;12.68;;;16.40;99.90;;;;;;4998461;28;20034;-75
2022/10/08 08:01:18;;;;;;;19.30;12.05;;;16.40;99.90;;;;;;5015897;28;20030;-75
2022/10/08 08:03:44;;;;;;;17.50;10.68;;;16.70;99.90;;;;;;4998077;28;20121;-75
2022/10/08 08:06:15;;;;;;;14.20;11.38;;;16.90;99.90;;;;;;5016133;28;20157;-75
2022/10/08 08:08:42;;;;;;;17.13;11.32;;;16.90;99.90;;;;;;5015594;28;20030;-75
2022/10/08 08:11:11;;;;;;;16.85;11.65;;;16.80;99.90;;;;;;4998147;28;20025;-75
2022/10/08 08:13:38;;;;;;;17.10;11.55;;;16.60;99.90;;;;;;5015508;28;20474;-75
2022/10/08 08:16:16;;;;;;;14.23;11.25;;;16.60;99.90;;;;;;4998171;28;20036;-75
2022/10/08 08:18:48;;;;;;;15.83;10.83;;;16.70;99.90;;;;;;4978721;28;20544;-75
2022/10/08 08:21:19;;;;;;;14.00;10.82;;;16.80;99.90;;;;;;4978740;28;20353;-75
2022/10/08 08:23:47;;;;;;;17.27;11.93;;;16.80;99.90;;;;;;4995922;28;20026;-75
2022/10/08 08:26:15;;;;;;;16.47;10.17;;;17.00;99.90;;;;;;4978460;28;20033;-75
2022/10/08 08:28:41;;;;;;;17.33;11.43;;;17.20;99.90;;;;;;4978454;28;20064;-75
2022/10/08 08:31:22;;;;;;;16.55;10.82;;;17.50;99.90;;;;;;4995809;28;20034;-75
2022/10/08 08:33:51;;;;;;;16.13;11.35;;;17.90;99.90;;;;;;4996044;28;20370;-75
2022/10/08 08:36:18;;;;;;;17.02;11.30;;;18.10;99.90;;;;;;4995303;28;20030;-75
2022/10/08 08:38:44;;;;;;;22.15;12.13;;;18.20;99.90;;;;;;4978062;28;20124;-76
2022/10/08 08:41:21;;;;;;;16.85;11.90;;;18.30;99.90;;;;;;4978642;28;20383;-75
2022/10/08 08:43:47;;;;;;;16.25;12.07;;;18.80;99.90;;;;;;4978090;28;20027;-75
2022/10/08 08:46:17;;;;;;;17.30;11.30;;;19.10;99.90;;;;;;4978082;28;20497;-75
2022/10/08 08:48:44;;;;;;;14.73;10.93;;;19.10;99.90;;;;;;4977735;28;20065;-75
2022/10/08 08:51:11;;;;;;;17.65;10.65;;;19.40;99.90;;;;;;4977842;28;20109;-75
2022/10/08 08:53:37;;;;;;;17.33;10.63;;;19.80;99.90;;;;;;4977502;28;20117;-76
2022/10/08 08:56:06;;;;;;;17.45;11.00;;;20.30;99.90;;;;;;4977641;28;20039;-76
2022/10/08 08:58:45;;;;;;;15.52;10.55;;;21.00;99.90;;;;;;4978470;28;20380;-76
2022/10/08 09:01:32;;;;;;;;;;;21.40;99.90;;;;;;4978782;28;20030;-76
2022/10/08 09:04:22;;;;;;;14.30;10.07;;;21.50;99.90;;;;;;4977691;28;19956;-76
2022/10/08 09:06:50;;;;;;;15.25;10.35;;;21.80;99.90;;;;;;4977157;28;20027;-76
2022/10/08 09:09:37;;;;;;;15.63;10.80;;;22.00;99.90;;;;;;4978009;28;20030;-76
2022/10/08 09:12:18;;;;;;;15.75;9.85;;;22.60;99.90;;;;;;4977744;28;20070;-76
2022/10/08 09:14:55;;;;;;;15.25;9.52;;;22.90;98.70;;;;;;4995345;28;20022;-76
2022/10/08 09:17:30;;;;;;;13.55;10.07;;;23.40;97.80;;;;;;4987358;28;20052;-76
2022/10/08 09:19:56;;;;;;;13.13;9.32;;;24.00;96.00;;;;;;5014607;28;20382;-76
2022/10/08 09:22:33;;;;;;;12.55;9.65;;;24.40;95.10;;;;;;5014600;28;20186;-76
2022/10/08 09:25:03;;;;;;;14.57;9.23;;;24.60;92.70;;;;;;5014264;28;20466;-76
2022/10/08 09:27:47;;;;;;;11.38;8.48;;;24.40;91.80;;;;;;5014232;28;20390;-76
2022/10/08 09:30:29;;;;;;;10.45;7.57;;;24.10;92.30;;;;;;4996859;28;20132;-76
2022/10/08 09:33:20;;;;;;;14.75;8.63;;;24.40;92.30;;;;;;4996623;28;20524;-76
2022/10/08 09:35:51;;;;;;;14.02;7.15;;;25.10;90.70;;;;;;4995846;28;20486;-75
2022/10/08 09:38:28;;;;;;;12.30;7.88;;;25.40;88.40;;;;;;5014249;28;20038;-76
2022/10/08 09:41:10;;;;;;;10.65;7.50;;;25.50;87.50;;;;;;5014623;28;20048;-75
2022/10/08 09:43:36;;;;;;;8.95;7.10;;;26.10;84.40;;;;;;5013909;28;20332;-75
2022/10/08 09:46:10;;;;;;;10.50;8.23;;;26.00;83.60;;;;;;4996591;28;20125;-76
2022/10/08 09:48:36;;;;;;;15.52;7.68;;;26.10;82.40;;;;;;4996521;28;20030;-77
2022/10/08 09:51:15;;;;;;;10.63;7.43;;;26.40;80.30;;;;;;5014068;28;20105;-77
2022/10/08 09:53:45;;;;;;;;;;;26.50;79.00;;;;;;5014680;28;20029;-77
2022/10/08 09:56:13;;;;;;;9.10;6.90;;;26.70;76.40;;;;;;4996366;28;19905;-77
2022/10/08 09:58:53;;;;;;;11.93;6.88;;;26.00;76.80;;;;;;4996489;28;20095;-76
2022/10/08 10:01:19;;;;;;;11.77;6.28;;;25.50;78.40;;;;;;4996765;28;20467;-76
2022/10/08 10:03:54;;;;;;;11.65;6.80;;;25.50;78.40;;;;;;4996404;28;20521;-76
2022/10/08 10:06:28;;;;;;;8.02;6.10;;;25.50;78.30;;;;;;4996883;28;20053;-76
2022/10/08 10:09:09;;;;;;;8.93;6.28;;;25.60;78.40;;;;;;5013882;28;20163;-76
2022/10/08 10:11:48;;;;;;;9.52;5.88;;;25.80;77.30;;;;;;5014000;28;20113;-76
2022/10/08 10:14:20;;;;;;;;;;;26.50;75.20;;;;;;4996962;28;20022;-76
2022/10/08 10:16:51;;;;;;;7.30;5.35;;;26.30;73.80;;;;;;4996369;28;20384;-76
2022/10/08 10:19:21;;;;;;;9.98;6.40;;;26.40;74.20;;;;;;5018176;28;20030;-79
2022/10/08 10:22:05;;;;;;;10.98;5.72;;;26.10;73.70;;;;;;5017751;28;20053;-78
2022/10/08 10:24:56;;;;;;;6.78;5.20;;;25.80;73.20;;;;;;5017869;28;20462;-79
2022/10/08 10:27:21;;;;;;;7.63;5.07;;;25.50;74.40;;;;;;5017795;28;20030;-64
2022/10/08 10:30:05;;;;;;;10.68;5.20;;;25.50;75.50;;;;;;5017932;28;20105;-64
2022/10/08 10:32:38;;;;;;;5.85;4.63;;;26.00;73.40;;;;;;5017499;28;20470;-78
2022/10/08 10:35:22;;;;;;;12.55;5.25;;;26.20;72.80;;;;;;5017326;28;20105;-73
2022/10/08 10:38:02;;;;;;;10.82;5.57;;;26.80;70.80;;;;;;5000601;28;20026;-73
2022/10/08 10:40:57;;;;;;;10.38;5.53;;;27.10;70.70;;;;;;5017502;28;20022;-73
2022/10/08 10:43:27;;;;;;;9.65;4.85;;;27.10;68.70;;;;;;4999809;28;20433;-73
2022/10/08 10:46:02;;;;;;;10.25;5.22;;;27.20;68.70;;;;;;5000115;28;20041;-73
2022/10/08 10:48:28;;;;;;;7.97;5.68;;;27.50;67.40;;;;;;5017446;28;20080;-58
2022/10/08 10:51:24;;;;;;;6.68;5.07;;;27.50;67.20;;;;;;5017584;28;20074;-58
2022/10/08 10:54:23;;;;;;;9.32;4.22;;;27.80;67.40;;;;;;5016999;28;20117;-58
2022/10/08 10:56:55;;;;;;;11.15;4.70;;;27.90;66.40;;;;;;5017090;28;20034;-57
2022/10/08 10:59:20;;;;;;;9.07;4.38;;;28.40;65.90;;;;;;5017214;28;20030;-57
2022/10/08 11:02:12;;;;;;;12.27;5.07;;;28.40;65.30;;;;;;5016759;28;20389;-56
2022/10/08 11:04:50;;;;;;;6.70;3.95;;;28.40;65.20;;;;;;5016691;28;20375;-56
2022/10/08 11:07:41;;;;;;;10.32;3.65;;;28.80;64.40;;;;;;5016800;28;20037;-57
2022/10/08 11:10:13;;;;;;;5.95;4.30;;;29.50;61.40;;;;;;5005663;28;20037;-57
2022/10/08 11:12:55;;;;;;;8.48;4.00;;;29.50;60.60;;;;;;4999638;28;20025;-58
2022/10/08 11:15:31;;;;;;;6.95;3.92;;;29.20;61.00;;;;;;5016883;28;20025;-58
2022/10/08 11:18:16;;;;;;;10.13;3.78;;;28.40;62.90;;;;;;5017063;28;20503;-58
2022/10/08 11:20:57;;;;;;;9.88;3.58;;;28.90;62.00;;;;;;4999128;28;20026;-58
2022/10/08 11:23:52;;;;;;;8.85;4.13;;;29.30;60.70;;;;;;5016512;28;20065;-75
2022/10/08 11:26:30;;;;;;;5.72;3.50;;;28.90;61.10;;;;;;4999281;28;20026;-75
2022/10/08 11:29:14;;;;;;;10.10;3.80;;;29.10;61.20;;;;;;5016053;28;20100;-75
2022/10/08 11:31:45;;;;;;;7.18;3.58;;;29.40;60.60;;;;;;4999034;28;20029;-75
2022/10/08 11:34:25;;;;;;;8.13;3.90;;;29.40;60.10;;;;;;5016627;28;20033;-75
2022/10/08 11:36:54;;;;;;;6.53;3.28;;;29.20;59.50;;;;;;5016707;28;20046;-75
2022/10/08 11:39:25;;;;;;;6.40;3.33;;;28.80;60.50;;;;;;5016429;28;20060;-75
2022/10/08 11:42:09;;;;;;;5.07;3.47;;;28.40;61.40;;;;;;4998807;28;20033;-75
2022/10/08 11:44:36;;;;;;;8.60;3.00;;;29.20;60.80;;;;;;4998485;28;20026;-75
2022/10/08 11:47:39;;;;;;;7.85;3.05;;;29.50;60.40;;;;;;4998647;28;20064;-75
2022/10/08 11:50:19;;;;;;;6.00;3.08;;;30.10;58.40;;;;;;5016509;28;20351;-76
2022/10/08 11:52:45;;;;;;;9.00;3.08;;;29.90;56.00;;;;;;5016351;28;20057;-76
2022/10/08 11:55:25;;;;;;;6.50;2.90;;;29.00;58.10;;;;;;4998497;28;20486;-76
2022/10/08 11:58:22;;;;;;;7.68;2.63;;;28.20;58.80;;;;;;4998477;28;20474;-75
2022/10/08 12:00:52;;;;;;;11.20;3.38;;;28.10;59.10;;;;;;4987560;28;20474;-76
2022/10/08 12:03:32;;;;;;;5.82;2.63;;;28.20;59.20;;;;;;5016131;28;20029;-76
2022/10/08 12:06:27;;;;;;;10.48;2.63;;;28.50;58.50;;;;;;4998199;28;20037;-75
2022/10/08 12:08:59;;;;;;;8.27;2.85;;;28.40;58.80;;;;;;4998893;28;20029;-76
2022/10/08 12:11:31;;;;;;;8.35;3.67;;;27.00;59.90;;;;;;5015866;28;20026;-76
2022/10/08 12:14:12;;;;;;;7.95;2.88;;;26.30;61.80;;;;;;4998222;28;20120;-76
2022/10/08 12:16:47;;;;;;;7.72;2.72;;;26.40;61.90;;;;;;4998361;28;20053;-77
2022/10/08 12:19:34;;;;;;;7.85;2.55;;;26.60;62.20;;;;;;5015605;28;20083;-76
2022/10/08 12:22:05;;;;;;;9.27;3.45;;;26.10;61.80;;;;;;4998069;28;20374;-76
2022/10/08 12:24:37;;;;;;;15.55;2.65;;;25.70;62.40;;;;;;4997831;28;20359;-76
2022/10/08 12:27:32;;;;;;;8.20;3.15;;;25.40;63.00;;;;;;4997793;28;20409;-76
2022/10/08 12:30:08;;;;;;;9.85;2.80;;;25.40;63.70;;;;;;4997804;28;20030;-76
2022/10/08 12:32:43;;;;;;;14.27;3.20;;;25.90;62.70;;;;;;5014956;28;20478;-75
2022/10/08 12:35:26;;;;;;;14.88;2.70;;;26.40;62.60;;;;;;4998097;28;20048;-76
2022/10/08 12:38:29;;;;;;;9.02;3.13;;;27.10;62.20;;;;;;5015286;28;20521;-76
2022/10/08 12:41:04;;;;;;;10.10;3.08;;;27.70;59.40;;;;;;4996532;28;20041;-76
2022/10/08 12:44:02;;;;;;;6.63;2.80;;;27.90;59.80;;;;;;5014916;28;20028;-76
2022/10/08 12:46:52;;;;;;;20.93;3.27;;;27.90;58.20;;;;;;4996400;28;20061;-76
2022/10/08 12:49:36;;;;;;;10.13;2.95;;;27.90;59.70;;;;;;5015147;28;20033;-76
2022/10/08 12:52:10;;;;;;;8.32;2.63;;;28.00;59.60;;;;;;4997884;28;20470;-76
2022/10/08 12:54:39;;;;;;;12.65;2.60;;;28.60;57.80;;;;;;4997824;28;20094;-75
2022/10/08 12:57:11;;;;;;;7.97;2.60;;;28.70;57.70;;;;;;4997247;28;20026;-76
2022/10/08 12:59:39;;;;;;;9.85;2.78;;;28.50;57.50;;;;;;4997368;28;20076;-75